Time;durP1;ratioP1;P1;durP2;ratioP2;P2;SDS_P1;SDS_P2;PMS_P1;PMS_P2;Temp;Humidity;BMP_temperature;BMP_pressure;BME280_temperature;BME280_humidity;BME280_pressure;Samples;Min_cycle;Max_cycle;Signal;HPM_P1;HPM_P2
2022/10/15 00:01:26;;;;;;;28.17;19.13;;;;;;;11.61;79.23;97989.03;10334784;28;20025;-58
2022/10/15 00:06:25;;;;;;;24.25;18.67;;;;;;;11.57;79.71;97977.78;10334997;28;20077;-57
2022/10/15 00:11:27;;;;;;;25.42;17.40;;;;;;;11.57;79.40;97975.19;10335028;28;20043;-58
2022/10/15 00:16:27;;;;;;;33.28;23.25;;;;;;;11.40;80.95;97985.56;10334769;28;20037;-58
2022/10/15 00:21:27;;;;;;;29.23;20.55;;;;;;;11.28;81.14;97977.78;10334829;28;20033;-58
2022/10/15 00:26:27;;;;;;;;;;;;;;;11.08;81.96;97979.50;10334915;28;20033;-58
2022/10/15 00:31:27;;;;;;;29.77;19.58;;;;;;;11.04;81.98;97978.66;10334607;28;19913;-58
2022/10/15 00:36:32;;;;;;;28.63;20.42;;;;;;;11.12;82.23;97981.25;10334209;28;20065;-58
2022/10/15 00:41:41;;;;;;;25.60;20.67;;;;;;;11.19;82.45;97965.66;10334216;28;20480;-58
2022/10/15 00:46:41;;;;;;;30.95;19.98;;;;;;;11.24;82.69;97965.66;10335917;28;20065;-58
2022/10/15 00:52:03;;;;;;;25.98;20.13;;;;;;;11.32;82.55;97963.94;10338378;28;20061;-58
2022/10/15 00:57:05;;;;;;;29.85;19.80;;;;;;;11.34;82.63;97958.72;10337379;28;20080;-58
2022/10/15 01:02:05;;;;;;;29.83;20.63;;;;;;;11.42;82.82;97959.59;10338154;28;20061;-58
2022/10/15 01:07:05;;;;;;;28.45;18.02;;;;;;;11.43;82.59;97961.31;10337806;28;20115;-58
2022/10/15 01:12:10;;;;;;;25.90;17.42;;;;;;;11.48;81.87;97958.72;10337387;28;20540;-58
2022/10/15 01:17:12;;;;;;;19.17;13.63;;;;;;;11.52;81.98;97952.66;10337662;28;20061;-57
2022/10/15 01:22:20;;;;;;;18.35;12.35;;;;;;;11.56;82.23;97960.44;10337626;28;20068;-57
2022/10/15 01:27:29;;;;;;;19.30;11.75;;;;;;;11.56;82.32;97952.66;10337428;28;20460;-58
2022/10/15 01:32:50;;;;;;;19.13;11.50;;;;;;;11.62;82.21;97956.97;10336997;28;20500;-58
2022/10/15 01:38:24;;;;;;;17.48;10.73;;;;;;;11.66;82.45;97958.69;10306457;28;20065;-57
2022/10/15 01:43:27;;;;;;;15.55;9.93;;;;;;;11.72;82.98;97958.69;10302902;28;20068;-57
2022/10/15 01:48:29;;;;;;;27.02;17.23;;;;;;;11.66;82.62;97959.53;10336430;28;20072;-57
2022/10/15 01:53:29;;;;;;;17.23;12.02;;;;;;;11.64;82.81;97955.22;10335919;28;20500;-57
2022/10/15 01:58:29;;;;;;;18.50;9.88;;;;;;;11.71;82.72;97966.47;10335704;28;20145;-58
2022/10/15 02:03:28;;;;;;;15.38;10.95;;;;;;;11.69;82.76;97969.09;10335800;28;20057;-57
2022/10/15 02:08:38;;;;;;;17.15;10.95;;;;;;;11.70;83.57;97963.00;10335259;28;20033;-57
2022/10/15 02:13:56;;;;;;;14.82;9.45;;;;;;;11.68;83.32;97965.59;10335721;28;20069;-57
2022/10/15 02:18:54;;;;;;;13.73;8.40;;;;;;;11.54;84.26;97966.50;10335196;28;20064;-57
2022/10/15 02:24:12;;;;;;;17.40;9.23;;;;;;;11.61;84.30;97971.69;10334889;28;20033;-57
2022/10/15 02:29:17;;;;;;;17.95;8.88;;;;;;;11.64;84.36;97965.63;10334765;28;20072;-58
2022/10/15 02:34:20;;;;;;;13.52;8.88;;;;;;;11.71;84.95;97972.53;10334781;28;20512;-57
2022/10/15 02:39:25;;;;;;;14.65;8.57;;;;;;;11.75;84.26;97974.25;10334458;28;20072;-57
2022/10/15 02:44:24;;;;;;;16.23;9.02;;;;;;;11.74;83.95;97974.28;10334298;28;20061;-57
2022/10/15 02:49:23;;;;;;;13.93;9.80;;;;;;;11.73;84.18;97978.59;10335073;28;20044;-57
2022/10/15 02:54:22;;;;;;;16.15;9.52;;;;;;;11.60;85.11;97975.16;10337047;28;20388;-57
2022/10/15 02:59:21;;;;;;;16.25;9.52;;;;;;;11.54;85.40;97975.16;10337099;28;20144;-57
2022/10/15 03:04:20;;;;;;;13.63;9.65;;;;;;;11.52;85.22;97965.66;10337341;28;20030;-58
2022/10/15 03:09:19;;;;;;;18.27;10.23;;;;;;;11.41;85.94;97974.31;10334374;28;20041;-57
2022/10/15 03:14:18;;;;;;;19.85;10.32;;;;;;;11.46;86.31;97977.78;10336595;28;20047;-57
2022/10/15 03:19:17;;;;;;;15.40;9.18;;;;;;;11.43;86.50;97971.72;10335669;28;20048;-57
2022/10/15 03:24:16;;;;;;;13.07;9.30;;;;;;;11.34;86.82;97985.59;10335998;28;20026;-58
2022/10/15 03:29:15;;;;;;;16.17;9.00;;;;;;;11.11;88.35;97995.13;10335826;28;20040;-57
2022/10/15 03:34:14;;;;;;;15.55;8.52;;;;;;;10.98;89.67;97992.50;10335490;28;20040;-57
2022/10/15 03:39:13;;;;;;;13.02;8.38;;;;;;;10.87;89.90;97994.22;10335621;28;20033;-57
2022/10/15 03:44:12;;;;;;;14.10;9.80;;;;;;;10.78;90.28;97988.97;10335406;28;20433;-57
2022/10/15 03:49:11;;;;;;;14.50;9.25;;;;;;;10.61;91.86;97995.00;10334221;28;20025;-57
2022/10/15 03:54:10;;;;;;;13.60;9.10;;;;;;;10.55;92.43;98002.75;10332094;28;20064;-58
2022/10/15 03:59:09;;;;;;;20.48;8.93;;;;;;;10.39;92.84;98004.44;10331707;28;20128;-57
2022/10/15 04:04:10;;;;;;;13.85;8.68;;;;;;;10.48;91.87;98001.00;10331110;28;20498;-58
2022/10/15 04:09:10;;;;;;;15.07;8.88;;;;;;;10.36;92.67;97998.38;10331431;28;20064;-57
2022/10/15 04:14:09;;;;;;;18.42;8.48;;;;;;;10.19;92.61;98003.47;10326032;28;20071;-57
2022/10/15 04:19:08;;;;;;;12.43;7.43;;;;;;;9.88;94.55;98011.09;10329872;28;20037;-57
2022/10/15 04:24:07;;;;;;;17.02;8.10;;;;;;;9.86;94.01;98004.16;10336765;28;20036;-58
2022/10/15 04:29:06;;;;;;;14.80;8.18;;;;;;;10.03;93.28;98015.53;10338056;28;20064;-57
2022/10/15 04:34:05;;;;;;;15.65;7.70;;;;;;;9.95;93.49;98012.00;10337519;28;20059;-57
2022/10/15 04:39:04;;;;;;;15.95;8.45;;;;;;;9.90;93.89;98018.88;10337037;28;20470;-57
2022/10/15 04:44:04;;;;;;;10.85;7.13;;;;;;;9.81;94.58;98018.84;10337356;28;20068;-58
2022/10/15 04:49:03;;;;;;;13.63;7.90;;;;;;;9.89;93.52;98032.72;10337975;28;20503;-57
2022/10/15 04:54:02;;;;;;;13.43;8.70;;;;;;;10.02;93.62;98037.09;10337061;28;20026;-57
2022/10/15 04:59:01;;;;;;;13.88;8.02;;;;;;;10.05;92.89;98039.72;10336773;28;20462;-58
2022/10/15 05:04:00;;;;;;;12.93;7.60;;;;;;;10.16;93.14;98040.63;10337396;28;20037;-57
2022/10/15 05:09:00;;;;;;;13.57;7.57;;;;;;;10.25;92.33;98042.41;10337836;28;20488;-57
2022/10/15 05:13:59;;;;;;;14.82;7.97;;;;;;;10.29;91.35;98043.31;10337127;28;20397;-57
2022/10/15 05:19:01;;;;;;;12.20;7.40;;;;;;;10.32;91.72;98039.00;10337558;28;20111;-58
2022/10/15 05:24:00;;;;;;;12.88;7.00;;;;;;;10.51;90.83;98049.44;10337235;28;20076;-57
2022/10/15 05:29:00;;;;;;;11.85;7.03;;;;;;;10.62;89.83;98056.41;10337157;28;20061;-57
2022/10/15 05:34:04;;;;;;;12.77;7.18;;;;;;;10.73;89.38;98061.66;10336194;28;20072;-57
2022/10/15 05:39:09;;;;;;;12.55;7.60;;;;;;;10.68;89.15;98058.16;10337215;28;20073;-57
2022/10/15 05:44:08;;;;;;;12.30;7.50;;;;;;;10.44;89.59;98064.13;10336621;28;20064;-57
2022/10/15 05:49:07;;;;;;;15.32;7.22;;;;;;;10.35;90.44;98075.31;10337484;28;20045;-57
2022/10/15 05:54:06;;;;;;;11.63;6.25;;;;;;;10.29;89.86;98079.63;10340041;28;20051;-57
2022/10/15 05:59:04;;;;;;;10.13;6.72;;;;;;;10.47;89.37;98079.72;10339471;28;20046;-57
2022/10/15 06:04:03;;;;;;;11.45;6.13;;;;;;;10.38;90.01;98087.47;10339255;28;20037;-57
2022/10/15 06:09:02;;;;;;;11.75;6.20;;;;;;;10.38;90.16;98095.25;10339568;28;20527;-57
2022/10/15 06:14:01;;;;;;;12.02;6.30;;;;;;;10.44;89.24;98100.44;10338906;28;20033;-58
2022/10/15 06:19:00;;;;;;;14.18;6.32;;;;;;;10.46;89.17;98105.66;10334052;28;20077;-57
2022/10/15 06:23:59;;;;;;;10.20;6.43;;;;;;;10.52;88.60;98109.16;10336505;28;20120;-58
2022/10/15 06:28:58;;;;;;;14.10;8.30;;;;;;;10.56;88.93;98113.47;10336568;28;20056;-58
2022/10/15 06:33:57;;;;;;;13.85;7.32;;;;;;;10.62;87.68;98121.28;10336165;28;20068;-58
2022/10/15 06:38:56;;;;;;;10.00;6.80;;;;;;;10.75;87.55;98132.63;10337096;28;20112;-58
2022/10/15 06:43:55;;;;;;;13.82;10.30;;;;;;;10.65;87.52;98137.75;10335773;28;20035;-58
2022/10/15 06:48:54;;;;;;;16.48;11.38;;;;;;;10.73;86.97;98131.72;10335033;28;20116;-58
2022/10/15 06:53:53;;;;;;;;;;;;;;;10.82;86.05;98128.28;10333144;28;20119;-57
2022/10/15 06:58:52;;;;;;;24.05;20.70;;;;;;;10.90;86.36;98126.63;10333580;28;20039;-57
2022/10/15 07:03:51;;;;;;;14.90;9.68;;;;;;;11.02;85.84;98131.00;10333627;28;20220;-57
2022/10/15 07:08:50;;;;;;;21.88;9.88;;;;;;;10.96;84.85;98130.97;10333481;28;20037;-58
2022/10/15 07:13:49;;;;;;;16.70;10.32;;;;;;;10.98;85.11;98122.31;10333648;28;20027;-58
2022/10/15 07:18:48;;;;;;;17.15;9.40;;;;;;;11.17;84.45;98117.19;10332803;28;20103;-58
2022/10/15 07:23:47;;;;;;;12.32;6.93;;;;;;;11.34;84.37;98128.50;10332509;28;20037;-58
2022/10/15 07:28:46;;;;;;;37.20;25.33;;;;;;;11.68;83.42;98128.53;10333275;28;20412;-58
2022/10/15 07:33:45;;;;;;;11.93;6.60;;;;;;;11.99;81.98;98134.56;10332250;28;20107;-58
2022/10/15 07:38:44;;;;;;;11.70;6.75;;;;;;;12.18;79.99;98137.16;10332231;28;20034;-58
2022/10/15 07:43:43;;;;;;;14.35;8.30;;;;;;;12.32;78.18;98131.97;10331939;28;20476;-58
2022/10/15 07:48:42;;;;;;;15.50;7.50;;;;;;;12.00;78.06;98109.47;10332220;28;20068;-57
2022/10/15 07:53:42;;;;;;;14.07;9.75;;;;;;;12.50;78.11;98144.97;10330157;28;20112;-58
2022/10/15 07:58:42;;;;;;;11.43;6.57;;;;;;;12.78;75.35;98132.72;10330273;28;20076;-58
2022/10/15 08:03:41;;;;;;;12.23;6.95;;;;;;;13.20;75.64;98124.72;10331224;28;20361;-58
2022/10/15 08:08:40;;;;;;;10.40;6.22;;;;;;;13.57;74.57;98133.22;10331575;28;20055;-58
2022/10/15 08:13:40;;;;;;;;;;;;;;;13.75;71.86;98133.06;10331807;28;20076;-58
2022/10/15 08:18:40;;;;;;;24.40;11.88;;;;;;;14.06;71.42;98126.75;10330743;28;19955;-58
2022/10/15 08:23:39;;;;;;;13.35;7.47;;;;;;;13.69;69.02;98140.06;10330547;28;20072;-58
2022/10/15 08:28:38;;;;;;;;;;;;;;;13.45;69.20;98141.94;10331902;28;20072;-58
2022/10/15 08:33:37;;;;;;;14.13;9.50;;;;;;;13.48;68.76;98131.47;10330934;28;19921;-58
2022/10/15 08:38:36;;;;;;;8.88;5.88;;;;;;;13.47;68.08;98126.28;10330286;28;20091;-58
2022/10/15 08:43:37;;;;;;;12.60;4.88;;;;;;;13.56;67.71;98121.03;10331372;28;20022;-58
2022/10/15 08:48:41;;;;;;;10.05;7.22;;;;;;;13.81;67.20;98121.72;10331337;28;20515;-58
2022/10/15 08:53:48;;;;;;;12.02;9.02;;;;;;;13.70;67.42;98115.72;10330420;28;20112;-57
2022/10/15 08:59:01;;;;;;;7.40;5.20;;;;;;;13.83;66.78;98116.50;10330252;28;20484;-58
2022/10/15 09:04:18;;;;;;;8.25;5.25;;;;;;;14.22;66.09;98115.28;10330564;28;20064;-58
2022/10/15 09:09:38;;;;;;;12.68;8.30;;;;;;;14.16;64.58;98120.53;10334681;28;20057;-58
2022/10/15 09:14:41;;;;;;;10.43;5.78;;;;;;;14.16;64.90;98104.88;10337794;28;20065;-58
2022/10/15 09:19:42;;;;;;;16.02;9.10;;;;;;;14.05;64.85;98102.38;10337532;28;20072;-58
2022/10/15 09:24:41;;;;;;;18.98;10.50;;;;;;;14.22;63.37;98117.00;10337432;28;20053;-58
2022/10/15 09:29:48;;;;;;;;;;;;;;;14.05;63.54;98117.16;10337657;28;20106;-58
2022/10/15 09:34:51;;;;;;;30.33;17.67;;;;;;;14.21;64.73;98108.31;10336846;28;19955;-58
2022/10/15 09:40:19;;;;;;;9.27;5.30;;;;;;;14.60;62.46;98114.00;10337487;28;20065;-58
2022/10/15 09:45:18;;;;;;;10.63;5.00;;;;;;;14.64;61.46;98102.66;10336699;28;20068;-58
2022/10/15 09:50:17;;;;;;;19.00;10.77;;;;;;;14.31;61.49;98089.09;10336846;28;20065;-58
2022/10/15 09:55:31;;;;;;;;;;;;;;;14.55;61.62;98102.75;10337027;28;20064;-58
2022/10/15 10:00:54;;;;;;;6.20;3.75;;;;;;;14.53;60.89;98101.91;10335860;28;19965;-58
2022/10/15 10:06:03;;;;;;;8.80;5.60;;;;;;;14.51;61.06;98090.59;10335828;28;20068;-58
2022/10/15 10:11:04;;;;;;;;;;;;;;;14.81;60.17;98082.44;10334793;28;20060;-58
2022/10/15 10:16:09;;;;;;;8.82;4.13;;;;;;;15.29;60.68;98073.06;10335852;28;19953;-58
2022/10/15 10:21:32;;;;;;;10.20;5.43;;;;;;;15.01;58.95;98097.84;10335027;28;20068;-58
2022/10/15 10:26:34;;;;;;;8.25;3.95;;;;;;;14.90;58.83;98084.06;10335054;28;20057;-58
2022/10/15 10:31:41;;;;;;;7.70;3.80;;;;;;;15.00;58.40;98087.41;10334870;28;20068;-58
2022/10/15 10:36:40;;;;;;;6.95;3.95;;;;;;;15.07;57.93;98080.34;10334565;28;20065;-58
2022/10/15 10:41:59;;;;;;;6.40;4.22;;;;;;;15.33;57.95;98078.22;10334333;28;20064;-58
2022/10/15 10:47:19;;;;;;;6.35;3.47;;;;;;;15.24;56.70;98076.59;10334293;28;20053;-58
2022/10/15 10:52:36;;;;;;;5.55;3.28;;;;;;;15.16;56.28;98072.38;10334317;28;20076;-58
2022/10/15 10:57:53;;;;;;;7.30;3.65;;;;;;;15.23;57.19;98079.25;10333551;28;20080;-58
2022/10/15 11:02:52;;;;;;;6.07;3.60;;;;;;;15.15;55.75;98079.34;10334010;28;20064;-58
2022/10/15 11:08:15;;;;;;;6.50;3.28;;;;;;;15.09;55.14;98063.75;10333494;28;20061;-58
2022/10/15 11:13:35;;;;;;;5.03;3.08;;;;;;;15.15;55.39;98071.50;10333292;28;20061;-58
2022/10/15 11:18:34;;;;;;;;;;;;;;;15.20;55.09;98061.88;10333389;28;20088;-58
2022/10/15 11:23:50;;;;;;;6.03;3.27;;;;;;;15.41;53.83;98059.78;10332402;28;19987;-58
2022/10/15 11:28:49;;;;;;;4.97;3.13;;;;;;;15.50;53.49;98062.25;10332688;28;20068;-58
2022/10/15 11:34:05;;;;;;;;;;;;;;;15.78;52.87;98064.44;10332064;28;20037;-58
2022/10/15 11:39:12;;;;;;;3.78;2.53;;;;;;;16.04;51.80;98051.81;10332753;28;19963;-58
2022/10/15 11:44:23;;;;;;;4.75;2.42;;;;;;;16.50;50.59;98056.16;10332363;28;20060;-58
2022/10/15 11:49:45;;;;;;;3.53;2.45;;;;;;;16.65;49.36;98047.13;10332325;28;20099;-58
2022/10/15 11:54:56;;;;;;;4.18;2.50;;;;;;;16.45;48.88;98047.53;10332006;28;20085;-58
2022/10/15 12:00:01;;;;;;;3.63;2.70;;;;;;;16.41;48.95;98040.59;10331482;28;20080;-58
2022/10/15 12:05:34;;;;;;;4.53;3.17;;;;;;;16.24;50.09;98053.19;10330543;28;20053;-58
2022/10/15 12:10:45;;;;;;;4.78;2.30;;;;;;;15.93;50.05;98053.75;10331686;28;20072;-58
2022/10/15 12:16:10;;;;;;;4.80;3.20;;;;;;;16.29;50.01;98064.44;10331610;28;20073;-58
2022/10/15 12:21:28;;;;;;;5.93;2.58;;;;;;;16.24;49.09;98055.81;10331576;28;20068;-58
2022/10/15 12:26:31;;;;;;;6.10;3.10;;;;;;;16.50;49.07;98069.25;10331303;28;20069;-58
2022/10/15 12:31:59;;;;;;;5.55;3.17;;;;;;;16.19;49.05;98055.88;10330890;28;20073;-58
2022/10/15 12:37:01;;;;;;;7.45;2.60;;;;;;;16.00;49.19;98055.38;10312457;28;20072;-58
2022/10/15 12:42:01;;;;;;;6.72;3.22;;;;;;;16.05;49.87;98061.38;10333140;28;20073;-58
2022/10/15 12:47:00;;;;;;;6.68;4.22;;;;;;;16.28;49.15;98057.47;10338941;28;20060;-58
2022/10/15 12:52:01;;;;;;;5.90;2.67;;;;;;;16.45;48.31;98050.16;10339058;28;20069;-58
2022/10/15 12:57:00;;;;;;;7.40;4.25;;;;;;;16.45;47.95;98047.53;10337946;28;20076;-58
2022/10/15 13:01:59;;;;;;;7.40;3.60;;;;;;;16.47;48.21;98040.50;10338431;28;20073;-58
2022/10/15 13:07:02;;;;;;;;;;;;;;;16.60;48.40;98043.72;10338479;28;20068;-58
2022/10/15 13:12:02;;;;;;;5.57;3.75;;;;;;;16.51;47.48;98036.03;10337609;28;19956;-58
2022/10/15 13:17:05;;;;;;;10.95;3.78;;;;;;;16.51;47.21;98036.03;10338030;28;20509;-58
2022/10/15 13:22:18;;;;;;;11.38;7.10;;;;;;;16.42;48.42;98034.50;10337003;28;20449;-58
2022/10/15 13:27:25;;;;;;;7.25;4.57;;;;;;;16.33;48.61;98032.06;10337345;28;20525;-58
2022/10/15 13:32:27;;;;;;;7.45;4.38;;;;;;;16.36;48.86;98039.00;10337155;28;20460;-58
2022/10/15 13:37:33;;;;;;;7.80;4.28;;;;;;;16.39;48.39;98038.91;10337515;28;20053;-58
2022/10/15 13:42:32;;;;;;;5.35;3.20;;;;;;;16.42;47.82;98031.00;10336781;28;20060;-58
2022/10/15 13:47:34;;;;;;;3.33;3.03;;;;;;;16.55;47.53;98021.13;10336716;28;20059;-58
2022/10/15 13:52:38;;;;;;;4.45;3.13;;;;;;;16.43;46.79;98017.00;10335797;28;20583;-58
2022/10/15 13:57:43;;;;;;;5.95;4.05;;;;;;;16.28;47.72;98016.44;10336166;28;20084;-58
2022/10/15 14:02:43;;;;;;;6.38;3.22;;;;;;;16.07;48.85;98024.72;10336307;28;20080;-58
2022/10/15 14:07:42;;;;;;;6.78;4.22;;;;;;;15.87;49.17;98027.69;10334928;28;20113;-58
2022/10/15 14:12:41;;;;;;;7.80;4.20;;;;;;;15.71;49.41;98027.03;10335920;28;20508;-58
2022/10/15 14:17:39;;;;;;;;;;;;;;;15.65;49.92;98033.25;10335856;28;20585;-58
2022/10/15 14:22:38;;;;;;;10.27;5.70;;;;;;;15.53;50.64;98028.22;10329608;28;20471;-58
2022/10/15 14:27:43;;;;;;;;;;;;;;;15.43;51.02;98024.03;10333521;28;20483;-58
2022/10/15 14:32:51;;;;;;;23.83;11.68;;;;;;;15.38;51.17;98015.41;10332858;28;19983;-58
2022/10/15 14:38:08;;;;;;;17.80;11.32;;;;;;;15.27;51.95;98017.31;10332148;28;20497;-58
2022/10/15 14:43:16;;;;;;;25.13;15.93;;;;;;;15.12;52.42;98019.28;10332897;28;20061;-58
2022/10/15 14:48:30;;;;;;;14.95;7.88;;;;;;;14.94;52.48;98016.94;10331872;28;20076;-58
2022/10/15 14:53:35;;;;;;;54.28;32.40;;;;;;;14.86;53.78;98021.41;10331859;28;20446;-58
2022/10/15 14:58:36;;;;;;;15.77;10.27;;;;;;;14.68;54.41;98036.41;10331439;28;20097;-57
2022/10/15 15:03:41;;;;;;;10.63;7.05;;;;;;;14.63;54.71;98038.22;10331796;28;20076;-58
2022/10/15 15:08:40;;;;;;;18.40;8.52;;;;;;;14.59;55.29;98029.56;10330368;28;20072;-58
2022/10/15 15:13:41;;;;;;;9.85;6.95;;;;;;;14.49;56.47;98030.53;10330726;28;20072;-58
2022/10/15 15:18:42;;;;;;;15.75;10.45;;;;;;;14.39;56.71;98035.03;10331351;28;20462;-58
2022/10/15 15:23:42;;;;;;;19.45;10.80;;;;;;;14.38;57.31;98048.97;10330594;28;20061;-58
2022/10/15 15:28:41;;;;;;;11.45;7.35;;;;;;;14.34;57.79;98047.28;10331067;28;20077;-57
2022/10/15 15:33:40;;;;;;;;;;;;;;;14.40;57.87;98062.88;10327520;28;20068;-58
2022/10/15 15:38:39;;;;;;;12.18;7.10;;;;;;;14.43;58.49;98069.81;10330283;28;19909;-58
2022/10/15 15:43:38;;;;;;;;;;;;;;;14.30;58.20;98060.38;10326696;28;20923;-58
2022/10/15 15:48:37;;;;;;;12.55;7.20;;;;;;;14.45;59.03;98088.03;10331074;28;20375;-58
2022/10/15 15:53:36;;;;;;;14.05;7.38;;;;;;;14.37;58.69;98089.00;10330340;28;20061;-57
2022/10/15 15:58:35;;;;;;;10.63;6.47;;;;;;;14.26;58.93;98090.84;10330076;28;20136;-58
2022/10/15 16:03:34;;;;;;;10.93;6.72;;;;;;;14.13;59.56;98099.72;10328680;28;20068;-58
2022/10/15 16:08:34;;;;;;;;;;;;;;;14.13;59.75;98111.00;10330728;28;20523;-58
2022/10/15 16:13:33;;;;;;;11.43;7.28;;;;;;;14.06;60.43;98126.75;10327906;28;20031;-58
2022/10/15 16:18:32;;;;;;;10.95;7.22;;;;;;;14.06;60.44;98137.19;10334377;28;20080;-58
2022/10/15 16:23:31;;;;;;;15.88;8.77;;;;;;;14.03;60.68;98140.69;10338167;28;20032;-57
2022/10/15 16:28:30;;;;;;;;;;;;;;;13.94;61.66;98152.06;10336871;28;20069;-58
2022/10/15 16:33:29;;;;;;;15.40;8.75;;;;;;;13.91;62.16;98159.03;10338148;28;20323;-58
2022/10/15 16:38:28;;;;;;;14.50;9.00;;;;;;;13.82;62.10;98165.19;10337302;28;20040;-58
2022/10/15 16:43:27;;;;;;;18.33;10.80;;;;;;;13.73;62.73;98180.91;10336910;28;20037;-58
2022/10/15 16:48:26;;;;;;;17.60;10.60;;;;;;;13.72;62.59;98200.88;10337098;28;20104;-58
2022/10/15 16:53:25;;;;;;;13.15;8.60;;;;;;;13.68;62.51;98196.59;10335369;28;20507;-58
2022/10/15 16:58:24;;;;;;;;;;;;;;;13.76;63.02;98209.56;10336556;28;20104;-58
2022/10/15 17:03:23;;;;;;;13.73;7.90;;;;;;;13.82;62.94;98208.66;10336206;28;19963;-58
2022/10/15 17:08:23;;;;;;;13.18;8.38;;;;;;;13.66;63.19;98213.13;10335696;28;20037;-58
2022/10/15 17:13:22;;;;;;;21.55;11.57;;;;;;;13.67;63.23;98205.28;10334633;28;20099;-58
2022/10/15 17:18:21;;;;;;;15.18;8.25;;;;;;;13.68;63.41;98217.47;10335532;28;20425;-58
2022/10/15 17:23:20;;;;;;;12.02;7.95;;;;;;;13.62;63.36;98217.47;10335265;28;20044;-58
2022/10/15 17:28:19;;;;;;;19.08;10.48;;;;;;;13.59;63.63;98212.28;10334520;28;20084;-59
2022/10/15 17:33:18;;;;;;;19.10;10.98;;;;;;;13.52;64.41;98224.47;10334824;28;20124;-58
2022/10/15 17:38:16;;;;;;;17.25;9.73;;;;;;;13.45;64.88;98221.91;10334741;28;20075;-58
2022/10/15 17:43:15;;;;;;;17.65;8.90;;;;;;;13.36;64.89;98220.19;10334756;28;20041;-58
2022/10/15 17:48:14;;;;;;;16.45;9.43;;;;;;;13.34;65.45;98227.16;10334589;28;20022;-58
2022/10/15 17:53:14;;;;;;;13.80;9.93;;;;;;;13.26;65.89;98224.59;10334322;28;20044;-60
2022/10/15 17:58:15;;;;;;;14.05;9.23;;;;;;;13.18;65.68;98234.16;10333412;28;20080;-58
2022/10/15 18:03:14;;;;;;;13.02;8.75;;;;;;;13.03;65.83;98227.28;10329848;28;20091;-58
2022/10/15 18:08:14;;;;;;;15.43;9.18;;;;;;;12.85;66.35;98227.31;10333458;28;20051;-58
2022/10/15 18:13:13;;;;;;;11.20;7.57;;;;;;;12.68;67.05;98220.41;10333591;28;20065;-58
2022/10/15 18:18:12;;;;;;;11.68;8.32;;;;;;;12.40;67.39;98216.13;10332404;28;20022;-58
2022/10/15 18:23:12;;;;;;;13.00;7.95;;;;;;;12.19;68.29;98220.44;10332837;28;20068;-58
2022/10/15 18:28:12;;;;;;;13.38;8.00;;;;;;;12.03;68.71;98211.75;10333478;28;20472;-58
2022/10/15 18:33:11;;;;;;;10.95;7.95;;;;;;;11.96;68.96;98235.16;10333289;28;20073;-58
2022/10/15 18:38:10;;;;;;;13.93;10.73;;;;;;;11.80;69.42;98240.31;10332767;28;20029;-58
2022/10/15 18:43:09;;;;;;;16.58;10.63;;;;;;;11.67;70.46;98230.78;10332826;28;20047;-58
2022/10/15 18:48:08;;;;;;;20.17;12.02;;;;;;;11.52;71.72;98246.34;10332491;28;20425;-57
2022/10/15 18:53:07;;;;;;;17.48;12.05;;;;;;;11.40;71.90;98245.41;10331643;28;20344;-57
2022/10/15 18:58:06;;;;;;;27.98;20.73;;;;;;;11.20;73.18;98244.50;10332253;28;20509;-57
2022/10/15 19:03:06;;;;;;;29.55;22.17;;;;;;;11.02;74.56;98253.06;10330824;28;20227;-58
2022/10/15 19:08:05;;;;;;;27.73;17.83;;;;;;;10.84;74.69;98264.16;10331029;28;20061;-57
2022/10/15 19:13:04;;;;;;;20.13;15.75;;;;;;;10.66;75.82;98277.03;10331625;28;20068;-58
2022/10/15 19:18:04;;;;;;;18.70;12.57;;;;;;;10.44;77.00;98281.19;10331343;28;20496;-57
2022/10/15 19:23:03;;;;;;;21.42;13.68;;;;;;;10.28;77.43;98275.00;10330692;28;20073;-58
2022/10/15 19:28:03;;;;;;;18.05;13.60;;;;;;;10.16;77.77;98281.81;10332218;28;20028;-57
2022/10/15 19:33:06;;;;;;;19.10;12.75;;;;;;;10.07;77.79;98275.69;10332707;28;20326;-57
2022/10/15 19:38:06;;;;;;;25.13;14.60;;;;;;;9.93;78.70;98278.13;10331523;28;20072;-58
2022/10/15 19:43:06;;;;;;;23.15;13.60;;;;;;;9.83;79.82;98281.50;10332274;28;20080;-58
2022/10/15 19:48:05;;;;;;;23.20;14.05;;;;;;;9.70;79.69;98291.75;10332688;28;20508;-58
2022/10/15 19:53:05;;;;;;;22.10;13.80;;;;;;;9.63;80.05;98296.81;10331387;28;20080;-57
2022/10/15 19:58:05;;;;;;;20.88;13.68;;;;;;;9.48;80.48;98290.59;10331483;28;20084;-57
2022/10/15 20:03:04;;;;;;;18.63;13.57;;;;;;;9.38;80.94;98300.88;10331541;28;20072;-58
2022/10/15 20:08:03;;;;;;;21.13;14.30;;;;;;;9.29;81.68;98299.88;10331519;28;20041;-58
2022/10/15 20:13:02;;;;;;;27.88;19.17;;;;;;;9.12;82.51;98297.03;10331348;28;20079;-57
2022/10/15 20:18:01;;;;;;;37.88;26.95;;;;;;;8.98;83.33;98296.00;10331143;28;20126;-58
2022/10/15 20:23:00;;;;;;;41.22;28.77;;;;;;;8.83;84.41;98294.06;10331405;28;20037;-58
2022/10/15 20:27:59;;;;;;;40.13;29.23;;;;;;;8.77;84.39;98296.53;10331113;28;20079;-57
2022/10/15 20:32:58;;;;;;;31.83;24.42;;;;;;;8.72;84.37;98305.97;10330917;28;20472;-58
2022/10/15 20:37:57;;;;;;;36.95;22.63;;;;;;;8.69;84.46;98304.19;10330749;28;20089;-58
2022/10/15 20:42:56;;;;;;;35.65;25.08;;;;;;;8.65;85.09;98304.13;10330901;28;20138;-58
2022/10/15 20:47:56;;;;;;;30.73;21.80;;;;;;;8.61;85.09;98307.50;10331013;28;20047;-58
2022/10/15 20:52:57;;;;;;;34.20;22.85;;;;;;;8.56;85.27;98322.09;10330914;28;20073;-57
2022/10/15 20:57:56;;;;;;;32.28;24.20;;;;;;;8.45;85.78;98317.59;10330655;28;20495;-58
2022/10/15 21:02:55;;;;;;;38.95;28.63;;;;;;;8.36;86.70;98329.50;10333117;28;20504;-58
2022/10/15 21:07:57;;;;;;;42.60;29.15;;;;;;;8.23;88.27;98331.88;10337988;28;20472;-57
2022/10/15 21:12:56;;;;;;;33.50;25.70;;;;;;;8.14;89.13;98342.06;10337903;28;20075;-58
2022/10/15 21:17:56;;;;;;;45.97;33.08;;;;;;;8.11;88.62;98336.84;10337823;28;20112;-58
2022/10/15 21:22:55;;;;;;;42.55;29.40;;;;;;;8.00;89.60;98339.22;10337188;28;20076;-57
2022/10/15 21:27:54;;;;;;;34.63;20.45;;;;;;;7.91;89.78;98344.22;10337452;28;20026;-58
2022/10/15 21:32:53;;;;;;;32.83;24.58;;;;;;;7.88;89.79;98345.03;10336948;28;20059;-58
2022/10/15 21:37:52;;;;;;;26.05;17.63;;;;;;;7.85;90.22;98357.91;10336839;28;20041;-57
2022/10/15 21:42:51;;;;;;;23.80;17.45;;;;;;;7.87;90.31;98356.22;10337091;28;20025;-57
2022/10/15 21:47:50;;;;;;;27.75;20.27;;;;;;;7.86;90.10;98354.47;10336882;28;20117;-58
2022/10/15 21:52:49;;;;;;;26.60;19.52;;;;;;;7.82;90.05;98350.06;10336177;28;20039;-58
2022/10/15 21:57:48;;;;;;;44.53;22.25;;;;;;;7.90;90.19;98358.00;10335960;28;20136;-58
2022/10/15 22:02:49;;;;;;;27.45;22.00;;;;;;;7.95;89.96;98361.53;10336168;28;20335;-58
2022/10/15 22:07:48;;;;;;;29.40;20.40;;;;;;;7.99;89.87;98358.19;10335583;28;20069;-58
2022/10/15 22:12:51;;;;;;;33.38;23.27;;;;;;;8.04;91.05;98366.00;10332676;28;20029;-58
2022/10/15 22:17:50;;;;;;;34.47;24.83;;;;;;;8.07;91.07;98366.94;10332745;28;20528;-58
2022/10/15 22:22:49;;;;;;;24.50;17.83;;;;;;;8.04;91.44;98361.72;10332775;28;20492;-58
2022/10/15 22:27:48;;;;;;;26.17;17.92;;;;;;;8.03;91.79;98365.13;10334608;28;20152;-58
2022/10/15 22:32:47;;;;;;;23.83;15.60;;;;;;;8.13;91.38;98370.47;10334424;28;20556;-58
2022/10/15 22:37:46;;;;;;;21.70;15.63;;;;;;;8.23;90.81;98372.41;10334414;28;20069;-58
2022/10/15 22:42:47;;;;;;;27.30;17.25;;;;;;;8.34;90.61;98381.22;10334382;28;20064;-57
2022/10/15 22:47:46;;;;;;;23.15;15.68;;;;;;;8.45;90.65;98371.91;10333735;28;20073;-57
2022/10/15 22:52:45;;;;;;;21.45;15.05;;;;;;;8.50;90.37;98372.88;10333851;28;20037;-57
2022/10/15 22:57:44;;;;;;;27.45;19.92;;;;;;;8.34;90.61;98380.31;10333406;28;20543;-57
2022/10/15 23:02:43;;;;;;;25.20;19.25;;;;;;;8.28;90.11;98375.94;10333305;28;20135;-57
2022/10/15 23:07:42;;;;;;;23.80;17.98;;;;;;;8.23;90.31;98383.59;10333208;28;20136;-57
2022/10/15 23:12:41;;;;;;;22.50;17.52;;;;;;;8.17;90.08;98387.78;10332917;28;20065;-57
2022/10/15 23:17:40;;;;;;;22.50;16.90;;;;;;;8.17;89.92;98387.78;10333078;28;20029;-57